sensor_id;sensor_type;location;lat;lon;timestamp;P1;durP1;ratioP1;P2;durP2;ratioP2
46765;SDS011;32527;51.986;5.842;2024-03-23T00:53:43;19.10;;;6.60;;
46765;SDS011;32527;51.986;5.842;2024-03-23T00:56:09;26.83;;;6.60;;
46765;SDS011;32527;51.986;5.842;2024-03-23T00:58:35;21.30;;;8.10;;
46765;SDS011;32527;51.986;5.842;2024-03-23T01:01:01;24.52;;;6.95;;
46765;SDS011;32527;51.986;5.842;2024-03-23T01:03:29;23.52;;;7.78;;
46765;SDS011;32527;51.986;5.842;2024-03-23T01:05:58;24.10;;;7.75;;
46765;SDS011;32527;51.986;5.842;2024-03-23T01:08:28;31.88;;;7.55;;
46765;SDS011;32527;51.986;5.842;2024-03-23T01:10:55;34.67;;;7.47;;
46765;SDS011;32527;51.986;5.842;2024-03-23T01:13:21;25.75;;;8.82;;
46765;SDS011;32527;51.986;5.842;2024-03-23T01:15:48;27.55;;;7.70;;
46765;SDS011;32527;51.986;5.842;2024-03-23T01:18:14;18.55;;;7.45;;
46765;SDS011;32527;51.986;5.842;2024-03-23T01:20:40;16.88;;;7.30;;
46765;SDS011;32527;51.986;5.842;2024-03-23T01:23:06;27.67;;;7.38;;
46765;SDS011;32527;51.986;5.842;2024-03-23T01:25:32;12.50;;;6.75;;
46765;SDS011;32527;51.986;5.842;2024-03-23T01:27:58;23.38;;;7.88;;
46765;SDS011;32527;51.986;5.842;2024-03-23T01:30:24;13.40;;;8.15;;
46765;SDS011;32527;51.986;5.842;2024-03-23T01:32:50;33.58;;;8.45;;
46765;SDS011;32527;51.986;5.842;2024-03-23T01:35:16;16.58;;;6.13;;
46765;SDS011;32527;51.986;5.842;2024-03-23T01:37:42;16.27;;;7.82;;
46765;SDS011;32527;51.986;5.842;2024-03-23T01:40:08;26.45;;;8.02;;
46765;SDS011;32527;51.986;5.842;2024-03-23T01:42:34;24.02;;;6.78;;
46765;SDS011;32527;51.986;5.842;2024-03-23T01:45:00;22.63;;;8.35;;
46765;SDS011;32527;51.986;5.842;2024-03-23T01:47:26;25.25;;;7.32;;
46765;SDS011;32527;51.986;5.842;2024-03-23T01:49:52;22.42;;;8.38;;
46765;SDS011;32527;51.986;5.842;2024-03-23T01:52:18;20.35;;;6.60;;
46765;SDS011;32527;51.986;5.842;2024-03-23T01:54:44;19.42;;;6.63;;
46765;SDS011;32527;51.986;5.842;2024-03-23T01:57:11;20.20;;;8.85;;
46765;SDS011;32527;51.986;5.842;2024-03-23T01:59:39;23.20;;;8.02;;
46765;SDS011;32527;51.986;5.842;2024-03-23T02:02:07;40.58;;;8.07;;
46765;SDS011;32527;51.986;5.842;2024-03-23T02:04:33;15.13;;;8.35;;
46765;SDS011;32527;51.986;5.842;2024-03-23T02:06:59;21.85;;;7.45;;
46765;SDS011;32527;51.986;5.842;2024-03-23T02:20:11;17.75;;;7.13;;
46765;SDS011;32527;51.986;5.842;2024-03-23T02:22:37;26.17;;;6.82;;
46765;SDS011;32527;51.986;5.842;2024-03-23T02:25:04;21.20;;;10.02;;
46765;SDS011;32527;51.986;5.842;2024-03-23T02:27:30;35.88;;;11.32;;
46765;SDS011;32527;51.986;5.842;2024-03-23T02:29:56;43.65;;;11.27;;
46765;SDS011;32527;51.986;5.842;2024-03-23T02:32:22;18.98;;;10.52;;
46765;SDS011;32527;51.986;5.842;2024-03-23T02:34:48;32.67;;;8.10;;
46765;SDS011;32527;51.986;5.842;2024-03-23T02:37:14;34.10;;;10.20;;
46765;SDS011;32527;51.986;5.842;2024-03-23T02:39:40;15.82;;;7.07;;
46765;SDS011;32527;51.986;5.842;2024-03-23T02:42:06;15.27;;;7.93;;
46765;SDS011;32527;51.986;5.842;2024-03-23T02:44:32;17.17;;;8.02;;
46765;SDS011;32527;51.986;5.842;2024-03-23T02:46:58;19.25;;;9.20;;
46765;SDS011;32527;51.986;5.842;2024-03-23T02:49:25;31.40;;;10.43;;
46765;SDS011;32527;51.986;5.842;2024-03-23T02:51:51;24.58;;;9.15;;
46765;SDS011;32527;51.986;5.842;2024-03-23T02:54:17;15.63;;;8.98;;
46765;SDS011;32527;51.986;5.842;2024-03-23T02:56:43;18.50;;;7.30;;
46765;SDS011;32527;51.986;5.842;2024-03-23T02:59:09;31.70;;;11.40;;
46765;SDS011;32527;51.986;5.842;2024-03-23T03:01:35;26.30;;;8.60;;
46765;SDS011;32527;51.986;5.842;2024-03-23T03:04:01;20.17;;;10.13;;
46765;SDS011;32527;51.986;5.842;2024-03-23T03:06:27;32.65;;;9.25;;
46765;SDS011;32527;51.986;5.842;2024-03-23T03:08:53;23.50;;;9.73;;
46765;SDS011;32527;51.986;5.842;2024-03-23T03:11:19;14.57;;;9.35;;
46765;SDS011;32527;51.986;5.842;2024-03-23T03:13:45;32.25;;;10.52;;
46765;SDS011;32527;51.986;5.842;2024-03-23T03:16:11;30.10;;;8.48;;
46765;SDS011;32527;51.986;5.842;2024-03-23T03:18:38;19.45;;;8.82;;
46765;SDS011;32527;51.986;5.842;2024-03-23T03:21:05;21.63;;;8.15;;
46765;SDS011;32527;51.986;5.842;2024-03-23T03:23:35;20.20;;;9.60;;
46765;SDS011;32527;51.986;5.842;2024-03-23T03:26:01;19.42;;;7.93;;
46765;SDS011;32527;51.986;5.842;2024-03-23T03:28:28;14.68;;;8.75;;
46765;SDS011;32527;51.986;5.842;2024-03-23T03:30:55;20.77;;;7.60;;
46765;SDS011;32527;51.986;5.842;2024-03-23T03:33:21;15.98;;;6.03;;
46765;SDS011;32527;51.986;5.842;2024-03-23T03:35:47;30.73;;;9.98;;
46765;SDS011;32527;51.986;5.842;2024-03-23T03:38:14;15.90;;;7.60;;
46765;SDS011;32527;51.986;5.842;2024-03-23T03:40:41;42.03;;;7.82;;
46765;SDS011;32527;51.986;5.842;2024-03-23T03:43:07;17.40;;;7.70;;
46765;SDS011;32527;51.986;5.842;2024-03-23T03:45:33;21.30;;;8.70;;
46765;SDS011;32527;51.986;5.842;2024-03-23T03:47:59;34.38;;;8.82;;
46765;SDS011;32527;51.986;5.842;2024-03-23T03:50:25;21.58;;;7.05;;
46765;SDS011;32527;51.986;5.842;2024-03-23T03:52:51;30.88;;;9.20;;
46765;SDS011;32527;51.986;5.842;2024-03-23T03:55:17;14.20;;;6.28;;
46765;SDS011;32527;51.986;5.842;2024-03-23T03:57:43;22.88;;;9.35;;
46765;SDS011;32527;51.986;5.842;2024-03-23T04:00:09;12.32;;;6.22;;
46765;SDS011;32527;51.986;5.842;2024-03-23T04:02:37;21.70;;;8.23;;
46765;SDS011;32527;51.986;5.842;2024-03-23T04:05:03;21.02;;;8.48;;
46765;SDS011;32527;51.986;5.842;2024-03-23T04:07:29;25.77;;;8.55;;
46765;SDS011;32527;51.986;5.842;2024-03-23T04:09:55;10.55;;;6.32;;
46765;SDS011;32527;51.986;5.842;2024-03-23T04:12:21;21.40;;;7.57;;
46765;SDS011;32527;51.986;5.842;2024-03-23T04:14:47;22.23;;;5.47;;
46765;SDS011;32527;51.986;5.842;2024-03-23T04:17:13;28.55;;;7.53;;
46765;SDS011;32527;51.986;5.842;2024-03-23T04:19:39;22.80;;;7.95;;
46765;SDS011;32527;51.986;5.842;2024-03-23T04:22:06;16.40;;;7.28;;
46765;SDS011;32527;51.986;5.842;2024-03-23T04:24:32;25.45;;;9.65;;
46765;SDS011;32527;51.986;5.842;2024-03-23T04:26:58;20.83;;;6.10;;
46765;SDS011;32527;51.986;5.842;2024-03-23T04:29:24;22.15;;;5.97;;
46765;SDS011;32527;51.986;5.842;2024-03-23T04:31:51;19.52;;;7.25;;
46765;SDS011;32527;51.986;5.842;2024-03-23T04:34:18;10.25;;;7.10;;
46765;SDS011;32527;51.986;5.842;2024-03-23T04:36:44;12.30;;;5.93;;
46765;SDS011;32527;51.986;5.842;2024-03-23T04:39:10;12.90;;;6.78;;
46765;SDS011;32527;51.986;5.842;2024-03-23T04:41:36;16.05;;;6.82;;
46765;SDS011;32527;51.986;5.842;2024-03-23T04:44:02;14.55;;;5.10;;
46765;SDS011;32527;51.986;5.842;2024-03-23T04:46:28;7.63;;;5.00;;
46765;SDS011;32527;51.986;5.842;2024-03-23T04:48:54;7.38;;;5.20;;
46765;SDS011;32527;51.986;5.842;2024-03-23T04:51:24;13.68;;;4.18;;
46765;SDS011;32527;51.986;5.842;2024-03-23T04:53:51;12.88;;;5.20;;
46765;SDS011;32527;51.986;5.842;2024-03-23T04:56:17;13.73;;;4.95;;
46765;SDS011;32527;51.986;5.842;2024-03-23T04:58:43;10.43;;;3.80;;
46765;SDS011;32527;51.986;5.842;2024-03-23T05:01:10;11.02;;;4.38;;
46765;SDS011;32527;51.986;5.842;2024-03-23T05:03:37;9.13;;;4.65;;
46765;SDS011;32527;51.986;5.842;2024-03-23T05:06:03;10.32;;;4.35;;
46765;SDS011;32527;51.986;5.842;2024-03-23T05:08:30;4.28;;;2.72;;
46765;SDS011;32527;51.986;5.842;2024-03-23T05:10:56;13.40;;;3.40;;
46765;SDS011;32527;51.986;5.842;2024-03-23T05:13:22;12.50;;;4.00;;
46765;SDS011;32527;51.986;5.842;2024-03-23T05:15:52;7.18;;;3.25;;
46765;SDS011;32527;51.986;5.842;2024-03-23T05:18:18;12.85;;;3.58;;
46765;SDS011;32527;51.986;5.842;2024-03-23T05:20:44;16.42;;;4.00;;
46765;SDS011;32527;51.986;5.842;2024-03-23T05:23:10;4.88;;;2.78;;
46765;SDS011;32527;51.986;5.842;2024-03-23T05:25:36;11.23;;;3.53;;
46765;SDS011;32527;51.986;5.842;2024-03-23T05:28:02;6.63;;;2.08;;
46765;SDS011;32527;51.986;5.842;2024-03-23T05:30:28;6.28;;;3.33;;
46765;SDS011;32527;51.986;5.842;2024-03-23T05:32:55;6.97;;;3.38;;
46765;SDS011;32527;51.986;5.842;2024-03-23T05:35:21;14.32;;;3.67;;
46765;SDS011;32527;51.986;5.842;2024-03-23T05:37:47;3.00;;;2.50;;
46765;SDS011;32527;51.986;5.842;2024-03-23T05:40:13;12.75;;;3.80;;
46765;SDS011;32527;51.986;5.842;2024-03-23T05:42:40;8.05;;;4.65;;
46765;SDS011;32527;51.986;5.842;2024-03-23T05:45:06;18.48;;;5.35;;
46765;SDS011;32527;51.986;5.842;2024-03-23T05:47:33;9.30;;;4.18;;
46765;SDS011;32527;51.986;5.842;2024-03-23T05:49:59;4.32;;;2.38;;
46765;SDS011;32527;51.986;5.842;2024-03-23T05:52:26;3.90;;;2.83;;
46765;SDS011;32527;51.986;5.842;2024-03-23T05:54:52;3.05;;;2.10;;
46765;SDS011;32527;51.986;5.842;2024-03-23T05:57:18;23.23;;;3.70;;
46765;SDS011;32527;51.986;5.842;2024-03-23T05:59:44;6.68;;;2.80;;
46765;SDS011;32527;51.986;5.842;2024-03-23T06:02:10;5.32;;;3.60;;
46765;SDS011;32527;51.986;5.842;2024-03-23T06:04:37;3.35;;;2.47;;
46765;SDS011;32527;51.986;5.842;2024-03-23T06:07:04;13.45;;;3.63;;
46765;SDS011;32527;51.986;5.842;2024-03-23T06:09:38;2.60;;;2.22;;
46765;SDS011;32527;51.986;5.842;2024-03-23T06:12:04;7.93;;;3.75;;
46765;SDS011;32527;51.986;5.842;2024-03-23T06:14:31;12.10;;;3.35;;
46765;SDS011;32527;51.986;5.842;2024-03-23T06:16:58;6.05;;;2.63;;
46765;SDS011;32527;51.986;5.842;2024-03-23T06:19:24;3.95;;;2.58;;
46765;SDS011;32527;51.986;5.842;2024-03-23T06:21:52;13.02;;;3.25;;
46765;SDS011;32527;51.986;5.842;2024-03-23T06:24:18;7.68;;;2.35;;
46765;SDS011;32527;51.986;5.842;2024-03-23T06:26:44;4.97;;;2.67;;
46765;SDS011;32527;51.986;5.842;2024-03-23T06:29:10;8.13;;;4.07;;
46765;SDS011;32527;51.986;5.842;2024-03-23T06:31:36;7.13;;;2.35;;
46765;SDS011;32527;51.986;5.842;2024-03-23T06:34:02;9.77;;;2.15;;
46765;SDS011;32527;51.986;5.842;2024-03-23T06:36:28;14.18;;;4.00;;
46765;SDS011;32527;51.986;5.842;2024-03-23T06:38:55;4.35;;;2.85;;
46765;SDS011;32527;51.986;5.842;2024-03-23T06:41:21;13.40;;;3.30;;
46765;SDS011;32527;51.986;5.842;2024-03-23T06:43:47;8.05;;;2.45;;
46765;SDS011;32527;51.986;5.842;2024-03-23T06:46:13;10.45;;;1.75;;
46765;SDS011;32527;51.986;5.842;2024-03-23T06:48:39;14.20;;;2.03;;
46765;SDS011;32527;51.986;5.842;2024-03-23T06:51:05;4.00;;;2.15;;
46765;SDS011;32527;51.986;5.842;2024-03-23T06:53:31;8.73;;;2.42;;
46765;SDS011;32527;51.986;5.842;2024-03-23T06:55:58;4.75;;;2.25;;
46765;SDS011;32527;51.986;5.842;2024-03-23T06:58:24;10.02;;;2.28;;
46765;SDS011;32527;51.986;5.842;2024-03-23T07:00:50;8.45;;;1.90;;
46765;SDS011;32527;51.986;5.842;2024-03-23T07:03:17;6.22;;;2.58;;
46765;SDS011;32527;51.986;5.842;2024-03-23T07:05:43;9.07;;;2.63;;
46765;SDS011;32527;51.986;5.842;2024-03-23T07:08:11;3.05;;;2.15;;
46765;SDS011;32527;51.986;5.842;2024-03-23T07:10:40;14.52;;;3.20;;
46765;SDS011;32527;51.986;5.842;2024-03-23T07:13:06;26.80;;;2.63;;
46765;SDS011;32527;51.986;5.842;2024-03-23T07:15:33;13.60;;;3.33;;
46765;SDS011;32527;51.986;5.842;2024-03-23T07:17:59;5.32;;;1.52;;
46765;SDS011;32527;51.986;5.842;2024-03-23T07:20:25;12.85;;;2.55;;
46765;SDS011;32527;51.986;5.842;2024-03-23T07:22:52;4.70;;;2.17;;
46765;SDS011;32527;51.986;5.842;2024-03-23T07:25:18;5.97;;;1.90;;
46765;SDS011;32527;51.986;5.842;2024-03-23T07:27:44;2.22;;;1.60;;
46765;SDS011;32527;51.986;5.842;2024-03-23T07:30:10;10.10;;;1.90;;
46765;SDS011;32527;51.986;5.842;2024-03-23T07:32:36;8.52;;;3.20;;
46765;SDS011;32527;51.986;5.842;2024-03-23T07:35:02;16.85;;;3.20;;
46765;SDS011;32527;51.986;5.842;2024-03-23T07:37:29;4.28;;;2.20;;
46765;SDS011;32527;51.986;5.842;2024-03-23T07:39:55;2.30;;;1.58;;
46765;SDS011;32527;51.986;5.842;2024-03-23T07:42:22;4.15;;;2.20;;
46765;SDS011;32527;51.986;5.842;2024-03-23T07:44:48;6.90;;;2.05;;
46765;SDS011;32527;51.986;5.842;2024-03-23T07:47:14;4.57;;;1.70;;
46765;SDS011;32527;51.986;5.842;2024-03-23T07:49:40;5.18;;;2.00;;
46765;SDS011;32527;51.986;5.842;2024-03-23T07:52:06;5.47;;;2.58;;
46765;SDS011;32527;51.986;5.842;2024-03-23T07:54:33;8.15;;;1.88;;
46765;SDS011;32527;51.986;5.842;2024-03-23T07:56:59;3.80;;;2.25;;
46765;SDS011;32527;51.986;5.842;2024-03-23T07:59:25;7.13;;;2.83;;
46765;SDS011;32527;51.986;5.842;2024-03-23T08:01:51;9.35;;;2.90;;
46765;SDS011;32527;51.986;5.842;2024-03-23T08:04:17;8.20;;;3.00;;
46765;SDS011;32527;51.986;5.842;2024-03-23T08:06:43;7.20;;;2.00;;
46765;SDS011;32527;51.986;5.842;2024-03-23T08:09:09;1.83;;;1.60;;
46765;SDS011;32527;51.986;5.842;2024-03-23T08:11:35;15.48;;;2.15;;
46765;SDS011;32527;51.986;5.842;2024-03-23T08:14:01;5.90;;;2.08;;
46765;SDS011;32527;51.986;5.842;2024-03-23T08:16:27;6.22;;;3.10;;
46765;SDS011;32527;51.986;5.842;2024-03-23T08:18:54;7.97;;;2.25;;
46765;SDS011;32527;51.986;5.842;2024-03-23T08:21:22;13.00;;;1.85;;
46765;SDS011;32527;51.986;5.842;2024-03-23T08:23:50;3.13;;;2.17;;
46765;SDS011;32527;51.986;5.842;2024-03-23T08:26:16;4.22;;;2.58;;
46765;SDS011;32527;51.986;5.842;2024-03-23T08:28:45;10.82;;;2.60;;
46765;SDS011;32527;51.986;5.842;2024-03-23T08:31:16;11.07;;;2.55;;
46765;SDS011;32527;51.986;5.842;2024-03-23T08:33:42;4.88;;;1.65;;
46765;SDS011;32527;51.986;5.842;2024-03-23T08:36:08;6.45;;;1.35;;
46765;SDS011;32527;51.986;5.842;2024-03-23T08:38:37;10.60;;;2.17;;
46765;SDS011;32527;51.986;5.842;2024-03-23T08:41:12;9.68;;;2.22;;
46765;SDS011;32527;51.986;5.842;2024-03-23T08:43:39;5.78;;;1.67;;
46765;SDS011;32527;51.986;5.842;2024-03-23T08:46:12;2.05;;;1.73;;
46765;SDS011;32527;51.986;5.842;2024-03-23T08:48:46;9.45;;;1.98;;
46765;SDS011;32527;51.986;5.842;2024-03-23T08:51:14;1.75;;;1.35;;
46765;SDS011;32527;51.986;5.842;2024-03-23T08:53:40;4.97;;;2.10;;
46765;SDS011;32527;51.986;5.842;2024-03-23T08:56:07;5.10;;;1.60;;
46765;SDS011;32527;51.986;5.842;2024-03-23T08:58:34;3.45;;;1.92;;
46765;SDS011;32527;51.986;5.842;2024-03-23T09:01:04;1.13;;;1.13;;
46765;SDS011;32527;51.986;5.842;2024-03-23T09:03:30;3.47;;;1.92;;
46765;SDS011;32527;51.986;5.842;2024-03-23T09:06:42;9.30;;;1.67;;
46765;SDS011;32527;51.986;5.842;2024-03-23T09:09:08;9.07;;;2.65;;
46765;SDS011;32527;51.986;5.842;2024-03-23T09:11:34;14.95;;;1.70;;
46765;SDS011;32527;51.986;5.842;2024-03-23T09:14:00;7.57;;;1.75;;
46765;SDS011;32527;51.986;5.842;2024-03-23T09:16:26;3.88;;;1.73;;
46765;SDS011;32527;51.986;5.842;2024-03-23T09:18:52;10.07;;;1.70;;
46765;SDS011;32527;51.986;5.842;2024-03-23T09:21:18;6.60;;;2.13;;
46765;SDS011;32527;51.986;5.842;2024-03-23T09:23:47;3.67;;;1.92;;
46765;SDS011;32527;51.986;5.842;2024-03-23T09:26:16;7.40;;;2.60;;
46765;SDS011;32527;51.986;5.842;2024-03-23T09:28:42;1.75;;;1.50;;
46765;SDS011;32527;51.986;5.842;2024-03-23T09:31:11;6.13;;;1.88;;
46765;SDS011;32527;51.986;5.842;2024-03-23T09:33:40;5.07;;;1.65;;
46765;SDS011;32527;51.986;5.842;2024-03-23T09:36:06;10.60;;;2.30;;
46765;SDS011;32527;51.986;5.842;2024-03-23T09:38:33;6.57;;;1.98;;
46765;SDS011;32527;51.986;5.842;2024-03-23T09:40:59;1.25;;;1.15;;
46765;SDS011;32527;51.986;5.842;2024-03-23T09:43:25;9.63;;;2.38;;
46765;SDS011;32527;51.986;5.842;2024-03-23T09:45:52;4.85;;;2.30;;
46765;SDS011;32527;51.986;5.842;2024-03-23T09:48:18;2.22;;;1.67;;
46765;SDS011;32527;51.986;5.842;2024-03-23T09:50:49;14.95;;;2.55;;
46765;SDS011;32527;51.986;5.842;2024-03-23T09:53:15;5.47;;;2.05;;
46765;SDS011;32527;51.986;5.842;2024-03-23T09:55:42;7.70;;;1.80;;
46765;SDS011;32527;51.986;5.842;2024-03-23T09:58:12;2.90;;;1.27;;
46765;SDS011;32527;51.986;5.842;2024-03-23T10:00:38;12.13;;;2.05;;
46765;SDS011;32527;51.986;5.842;2024-03-23T10:03:06;7.32;;;1.58;;
46765;SDS011;32527;51.986;5.842;2024-03-23T10:05:32;6.88;;;1.85;;
46765;SDS011;32527;51.986;5.842;2024-03-23T10:10:43;11.02;;;3.38;;
46765;SDS011;32527;51.986;5.842;2024-03-23T10:13:09;1.52;;;1.38;;
46765;SDS011;32527;51.986;5.842;2024-03-23T10:15:36;8.73;;;1.65;;
46765;SDS011;32527;51.986;5.842;2024-03-23T10:18:17;2.20;;;1.30;;
46765;SDS011;32527;51.986;5.842;2024-03-23T10:20:45;5.10;;;3.15;;
46765;SDS011;32527;51.986;5.842;2024-03-23T10:23:18;5.68;;;2.42;;
46765;SDS011;32527;51.986;5.842;2024-03-23T10:25:44;4.70;;;1.85;;
46765;SDS011;32527;51.986;5.842;2024-03-23T10:28:13;1.70;;;1.45;;
46765;SDS011;32527;51.986;5.842;2024-03-23T10:30:39;2.08;;;1.65;;
46765;SDS011;32527;51.986;5.842;2024-03-23T10:33:08;4.35;;;1.98;;
46765;SDS011;32527;51.986;5.842;2024-03-23T10:35:36;10.85;;;1.67;;
46765;SDS011;32527;51.986;5.842;2024-03-23T10:38:05;0.95;;;0.85;;
46765;SDS011;32527;51.986;5.842;2024-03-23T10:40:41;8.77;;;1.83;;
46765;SDS011;32527;51.986;5.842;2024-03-23T10:43:08;2.03;;;1.27;;
46765;SDS011;32527;51.986;5.842;2024-03-23T10:45:34;1.17;;;1.05;;
46765;SDS011;32527;51.986;5.842;2024-03-23T10:48:00;1.00;;;0.90;;
46765;SDS011;32527;51.986;5.842;2024-03-23T10:50:27;11.95;;;2.30;;
46765;SDS011;32527;51.986;5.842;2024-03-23T10:52:53;7.85;;;2.33;;
46765;SDS011;32527;51.986;5.842;2024-03-23T10:55:24;2.45;;;1.02;;
46765;SDS011;32527;51.986;5.842;2024-03-23T10:57:54;16.55;;;1.95;;
46765;SDS011;32527;51.986;5.842;2024-03-23T11:00:20;6.85;;;1.52;;
46765;SDS011;32527;51.986;5.842;2024-03-23T11:02:48;31.77;;;1.85;;
46765;SDS011;32527;51.986;5.842;2024-03-23T11:11:37;8.77;;;2.38;;
46765;SDS011;32527;51.986;5.842;2024-03-23T11:14:21;5.78;;;1.63;;
46765;SDS011;32527;51.986;5.842;2024-03-23T11:17:08;8.07;;;1.75;;
46765;SDS011;32527;51.986;5.842;2024-03-23T11:19:35;2.40;;;1.35;;
46765;SDS011;32527;51.986;5.842;2024-03-23T11:22:02;1.90;;;1.13;;
46765;SDS011;32527;51.986;5.842;2024-03-23T11:24:28;3.67;;;2.10;;
46765;SDS011;32527;51.986;5.842;2024-03-23T11:26:54;4.05;;;2.05;;
46765;SDS011;32527;51.986;5.842;2024-03-23T11:29:20;1.58;;;1.20;;
46765;SDS011;32527;51.986;5.842;2024-03-23T11:31:50;2.72;;;1.02;;
46765;SDS011;32527;51.986;5.842;2024-03-23T11:34:17;1.75;;;1.13;;
46765;SDS011;32527;51.986;5.842;2024-03-23T11:36:43;3.58;;;1.33;;
46765;SDS011;32527;51.986;5.842;2024-03-23T11:39:17;1.60;;;0.88;;
46765;SDS011;32527;51.986;5.842;2024-03-23T11:41:47;1.77;;;1.33;;
46765;SDS011;32527;51.986;5.842;2024-03-23T11:46:42;4.53;;;1.33;;
46765;SDS011;32527;51.986;5.842;2024-03-23T11:51:50;3.50;;;1.20;;
46765;SDS011;32527;51.986;5.842;2024-03-23T11:54:20;5.25;;;1.50;;
46765;SDS011;32527;51.986;5.842;2024-03-23T11:57:03;2.55;;;1.17;;
46765;SDS011;32527;51.986;5.842;2024-03-23T11:59:39;3.40;;;1.40;;
46765;SDS011;32527;51.986;5.842;2024-03-23T12:02:12;1.38;;;1.05;;
46765;SDS011;32527;51.986;5.842;2024-03-23T12:04:40;1.45;;;0.88;;
46765;SDS011;32527;51.986;5.842;2024-03-23T12:09:35;4.82;;;1.13;;
46765;SDS011;32527;51.986;5.842;2024-03-23T12:12:05;1.35;;;0.63;;
46765;SDS011;32527;51.986;5.842;2024-03-23T12:14:31;2.83;;;1.48;;
46765;SDS011;32527;51.986;5.842;2024-03-23T12:17:06;3.42;;;0.93;;
46765;SDS011;32527;51.986;5.842;2024-03-23T12:19:33;3.05;;;1.13;;
46765;SDS011;32527;51.986;5.842;2024-03-23T12:21:59;5.68;;;2.22;;
46765;SDS011;32527;51.986;5.842;2024-03-23T12:24:26;6.55;;;1.25;;
46765;SDS011;32527;51.986;5.842;2024-03-23T12:26:52;1.27;;;0.68;;
46765;SDS011;32527;51.986;5.842;2024-03-23T12:29:18;0.50;;;0.50;;
46765;SDS011;32527;51.986;5.842;2024-03-23T12:31:45;1.63;;;0.68;;
46765;SDS011;32527;51.986;5.842;2024-03-23T12:34:11;0.85;;;0.73;;
46765;SDS011;32527;51.986;5.842;2024-03-23T12:36:37;1.48;;;1.13;;
46765;SDS011;32527;51.986;5.842;2024-03-23T12:39:03;4.28;;;2.25;;
46765;SDS011;32527;51.986;5.842;2024-03-23T12:41:29;3.97;;;1.27;;
46765;SDS011;32527;51.986;5.842;2024-03-23T12:43:55;1.98;;;1.48;;
46765;SDS011;32527;51.986;5.842;2024-03-23T12:46:21;7.60;;;2.45;;
46765;SDS011;32527;51.986;5.842;2024-03-23T12:48:48;3.20;;;1.35;;
46765;SDS011;32527;51.986;5.842;2024-03-23T12:51:14;5.40;;;1.55;;
46765;SDS011;32527;51.986;5.842;2024-03-23T12:53:40;2.45;;;0.90;;
46765;SDS011;32527;51.986;5.842;2024-03-23T12:56:06;0.98;;;0.68;;
46765;SDS011;32527;51.986;5.842;2024-03-23T12:58:32;3.60;;;1.20;;
46765;SDS011;32527;51.986;5.842;2024-03-23T13:00:58;4.95;;;1.48;;
46765;SDS011;32527;51.986;5.842;2024-03-23T13:03:24;3.13;;;1.77;;
46765;SDS011;32527;51.986;5.842;2024-03-23T13:05:53;10.50;;;1.95;;
46765;SDS011;32527;51.986;5.842;2024-03-23T13:08:19;5.28;;;2.17;;
46765;SDS011;32527;51.986;5.842;2024-03-23T13:10:45;4.28;;;2.63;;
46765;SDS011;32527;51.986;5.842;2024-03-23T13:13:12;2.50;;;1.20;;
46765;SDS011;32527;51.986;5.842;2024-03-23T13:15:38;5.35;;;1.15;;
46765;SDS011;32527;51.986;5.842;2024-03-23T13:18:04;1.92;;;1.05;;
46765;SDS011;32527;51.986;5.842;2024-03-23T13:20:30;2.60;;;1.45;;
46765;SDS011;32527;51.986;5.842;2024-03-23T13:22:56;3.20;;;2.22;;
46765;SDS011;32527;51.986;5.842;2024-03-23T13:25:22;7.10;;;2.60;;
46765;SDS011;32527;51.986;5.842;2024-03-23T13:27:51;2.38;;;1.50;;
46765;SDS011;32527;51.986;5.842;2024-03-23T13:30:17;1.75;;;1.10;;
46765;SDS011;32527;51.986;5.842;2024-03-23T13:32:43;4.13;;;1.90;;
46765;SDS011;32527;51.986;5.842;2024-03-23T13:35:09;3.15;;;1.95;;
46765;SDS011;32527;51.986;5.842;2024-03-23T13:37:35;2.67;;;1.33;;
46765;SDS011;32527;51.986;5.842;2024-03-23T13:40:01;1.40;;;1.25;;
46765;SDS011;32527;51.986;5.842;2024-03-23T13:42:27;2.25;;;1.42;;
46765;SDS011;32527;51.986;5.842;2024-03-23T13:44:53;3.78;;;1.52;;
46765;SDS011;32527;51.986;5.842;2024-03-23T13:47:19;1.23;;;1.13;;
46765;SDS011;32527;51.986;5.842;2024-03-23T13:49:45;10.98;;;2.50;;
46765;SDS011;32527;51.986;5.842;2024-03-23T13:52:12;4.38;;;1.67;;
46765;SDS011;32527;51.986;5.842;2024-03-23T13:54:38;9.27;;;2.55;;
46765;SDS011;32527;51.986;5.842;2024-03-23T13:57:10;5.88;;;1.05;;
46765;SDS011;32527;51.986;5.842;2024-03-23T13:59:36;2.17;;;1.25;;
46765;SDS011;32527;51.986;5.842;2024-03-23T14:02:02;2.47;;;1.27;;
46765;SDS011;32527;51.986;5.842;2024-03-23T14:04:28;3.03;;;2.15;;
46765;SDS011;32527;51.986;5.842;2024-03-23T14:06:54;0.50;;;0.50;;
46765;SDS011;32527;51.986;5.842;2024-03-23T14:09:20;5.88;;;1.27;;
46765;SDS011;32527;51.986;5.842;2024-03-23T14:11:48;3.28;;;1.02;;
46765;SDS011;32527;51.986;5.842;2024-03-23T14:14:14;3.08;;;1.17;;
46765;SDS011;32527;51.986;5.842;2024-03-23T14:16:43;5.53;;;2.05;;
46765;SDS011;32527;51.986;5.842;2024-03-23T14:19:09;2.67;;;0.98;;
46765;SDS011;32527;51.986;5.842;2024-03-23T14:21:35;2.85;;;0.88;;
46765;SDS011;32527;51.986;5.842;2024-03-23T14:24:01;4.53;;;1.05;;
46765;SDS011;32527;51.986;5.842;2024-03-23T14:26:27;5.57;;;0.82;;
46765;SDS011;32527;51.986;5.842;2024-03-23T14:28:53;1.40;;;0.73;;
46765;SDS011;32527;51.986;5.842;2024-03-23T14:31:20;4.35;;;1.52;;
46765;SDS011;32527;51.986;5.842;2024-03-23T14:33:46;7.72;;;1.35;;
46765;SDS011;32527;51.986;5.842;2024-03-23T14:36:15;5.57;;;0.95;;
46765;SDS011;32527;51.986;5.842;2024-03-23T14:38:42;1.25;;;0.70;;
46765;SDS011;32527;51.986;5.842;2024-03-23T14:41:12;4.70;;;1.20;;
46765;SDS011;32527;51.986;5.842;2024-03-23T14:43:38;3.30;;;0.80;;
46765;SDS011;32527;51.986;5.842;2024-03-23T14:46:05;1.88;;;1.45;;
46765;SDS011;32527;51.986;5.842;2024-03-23T14:48:32;2.88;;;1.50;;
46765;SDS011;32527;51.986;5.842;2024-03-23T14:50:58;2.10;;;1.20;;
46765;SDS011;32527;51.986;5.842;2024-03-23T14:53:25;2.28;;;0.98;;
46765;SDS011;32527;51.986;5.842;2024-03-23T14:55:54;1.75;;;0.95;;
46765;SDS011;32527;51.986;5.842;2024-03-23T14:58:20;6.38;;;1.02;;
46765;SDS011;32527;51.986;5.842;2024-03-23T15:00:48;3.55;;;1.33;;
46765;SDS011;32527;51.986;5.842;2024-03-23T15:03:14;8.10;;;1.23;;
46765;SDS011;32527;51.986;5.842;2024-03-23T15:05:40;0.82;;;0.80;;
46765;SDS011;32527;51.986;5.842;2024-03-23T15:08:07;4.60;;;1.30;;
46765;SDS011;32527;51.986;5.842;2024-03-23T15:10:33;1.75;;;1.13;;
46765;SDS011;32527;51.986;5.842;2024-03-23T15:12:59;20.25;;;0.93;;
46765;SDS011;32527;51.986;5.842;2024-03-23T15:15:25;12.00;;;2.00;;
46765;SDS011;32527;51.986;5.842;2024-03-23T15:17:53;2.70;;;1.45;;
46765;SDS011;32527;51.986;5.842;2024-03-23T15:21:19;1.90;;;1.05;;
46765;SDS011;32527;51.986;5.842;2024-03-23T15:24:49;0.80;;;0.80;;
46765;SDS011;32527;51.986;5.842;2024-03-23T15:27:15;2.83;;;1.52;;
46765;SDS011;32527;51.986;5.842;2024-03-23T15:29:41;2.15;;;1.15;;
46765;SDS011;32527;51.986;5.842;2024-03-23T15:32:10;6.10;;;1.85;;
46765;SDS011;32527;51.986;5.842;2024-03-23T15:34:36;7.35;;;1.52;;
46765;SDS011;32527;51.986;5.842;2024-03-23T15:37:02;2.13;;;1.48;;
46765;SDS011;32527;51.986;5.842;2024-03-23T15:39:29;3.60;;;0.88;;
46765;SDS011;32527;51.986;5.842;2024-03-23T15:41:55;3.70;;;2.28;;
46765;SDS011;32527;51.986;5.842;2024-03-23T15:44:21;5.10;;;1.17;;
46765;SDS011;32527;51.986;5.842;2024-03-23T15:46:47;1.08;;;0.73;;
46765;SDS011;32527;51.986;5.842;2024-03-23T15:49:13;0.73;;;0.73;;
46765;SDS011;32527;51.986;5.842;2024-03-23T15:51:39;3.00;;;1.33;;
46765;SDS011;32527;51.986;5.842;2024-03-23T15:54:07;1.55;;;0.98;;
46765;SDS011;32527;51.986;5.842;2024-03-23T15:56:33;1.25;;;0.80;;
46765;SDS011;32527;51.986;5.842;2024-03-23T15:58:59;1.02;;;0.70;;
46765;SDS011;32527;51.986;5.842;2024-03-23T16:01:30;0.43;;;0.43;;
46765;SDS011;32527;51.986;5.842;2024-03-23T16:03:58;4.72;;;0.85;;